createdAt,value
2019-04-23T00:00:48.384Z,11.61
2019-04-23T00:01:49.266Z,11.62
2019-04-23T00:02:54.941Z,11.63
2019-04-23T00:04:01.410Z,11.63
2019-04-23T00:05:00.327Z,11.64
2019-04-23T00:06:15.543Z,11.66
2019-04-23T00:07:15.519Z,11.65
2019-04-23T00:08:19.682Z,11.66
2019-04-23T00:09:28.620Z,11.67
2019-04-23T00:10:25.320Z,11.68
2019-04-23T00:14:48.066Z,11.69
2019-04-23T00:15:53.239Z,11.68
2019-04-23T00:16:49.284Z,11.69
2019-04-23T00:18:12.385Z,11.70
2019-04-23T00:18:49.741Z,11.72
2019-04-23T00:20:04.561Z,11.73
2019-04-23T00:21:11.513Z,11.73
2019-04-23T00:22:13.316Z,11.73
2019-04-23T00:23:35.742Z,11.74
2019-04-23T00:24:28.429Z,11.74
2019-04-23T00:25:44.967Z,11.73
2019-04-23T00:26:30.580Z,11.72
2019-04-23T00:28:42.137Z,11.68
2019-04-23T00:29:47.918Z,11.66
2019-04-23T00:30:48.315Z,11.65
2019-04-23T00:31:44.424Z,11.64
2019-04-23T00:33:01.438Z,11.64
2019-04-23T00:33:57.497Z,11.64
2019-04-23T00:36:29.418Z,11.61
2019-04-23T00:37:18.682Z,11.60
2019-04-23T00:38:18.363Z,11.59
2019-04-23T00:39:23.442Z,11.59
2019-04-23T00:40:28.822Z,11.59
2019-04-23T00:41:33.338Z,11.59
2019-04-23T00:42:38.513Z,11.59
2019-04-23T00:43:54.539Z,11.58
2019-04-23T00:44:46.044Z,11.57
2019-04-23T00:45:48.490Z,11.56
2019-04-23T00:46:50.683Z,11.55
2019-04-23T00:51:01.974Z,11.56
2019-04-23T00:52:15.162Z,11.56
2019-04-23T00:55:22.801Z,11.57
2019-04-23T00:56:38.619Z,11.55
2019-04-23T00:57:35.590Z,11.55
2019-04-23T00:59:44.782Z,11.54
2019-04-23T01:00:48.998Z,11.53
2019-04-23T01:03:01.916Z,11.53
2019-04-23T01:04:02.814Z,11.53
2019-04-23T01:06:10.042Z,11.54
2019-04-23T01:07:16.497Z,11.54
2019-04-23T01:08:18.600Z,11.53
2019-04-23T01:09:22.685Z,11.52
2019-04-23T01:10:27.682Z,11.50
2019-04-23T01:11:23.903Z,11.50
2019-04-23T01:12:39.742Z,11.50
2019-04-23T01:14:38.530Z,11.48
2019-04-23T01:15:46.803Z,11.46
2019-04-23T01:16:46.221Z,11.47
2019-04-23T01:18:54.585Z,11.47
2019-04-23T01:20:01.921Z,11.47
2019-04-23T01:20:54.705Z,11.46
2019-04-23T01:21:51.497Z,11.47
2019-04-23T01:22:54.967Z,11.47
2019-04-23T01:24:04.396Z,11.45
2019-04-23T01:25:13.396Z,11.46
2019-04-23T01:26:26.445Z,11.45
2019-04-23T01:27:48.452Z,11.44
2019-04-23T01:28:49.603Z,11.44
2019-04-23T01:29:50.656Z,11.43
2019-04-23T01:30:59.120Z,11.43
2019-04-23T01:31:53.306Z,11.43
2019-04-23T01:32:53.603Z,11.43
2019-04-23T01:34:07.970Z,11.42
2019-04-23T01:37:18.067Z,11.39
2019-04-23T01:38:22.270Z,11.39
2019-04-23T01:39:23.127Z,11.36
2019-04-23T01:40:32.208Z,11.34
2019-04-23T01:41:33.343Z,11.34
2019-04-23T01:42:40.605Z,11.34
2019-04-23T01:43:41.082Z,11.33
2019-04-23T01:44:51.595Z,11.32
2019-04-23T01:45:43.459Z,11.32
2019-04-23T01:46:57.634Z,11.31
2019-04-23T01:48:13.244Z,11.30
2019-04-23T01:49:06.684Z,11.31
2019-04-23T01:50:14.320Z,11.31
2019-04-23T01:51:09.645Z,11.32
2019-04-23T01:52:21.239Z,11.33
2019-04-23T01:54:27.321Z,11.32
2019-04-23T01:57:46.613Z,11.27
2019-04-23T01:58:59.199Z,11.27
2019-04-23T01:59:49.447Z,11.26
2019-04-23T02:01:58.748Z,11.24
2019-04-23T02:03:03.635Z,11.25
2019-04-23T02:04:09.638Z,11.25
2019-04-23T02:05:15.744Z,11.26
2019-04-23T02:06:14.811Z,11.26
2019-04-23T02:07:24.422Z,11.24
2019-04-23T02:08:20.994Z,11.23
2019-04-23T02:09:26.040Z,11.22
2019-04-23T02:10:41.151Z,11.19
2019-04-23T02:11:31.583Z,11.16
2019-04-23T02:12:42.976Z,11.13
2019-04-23T02:13:42.027Z,11.12
2019-04-23T02:14:51.604Z,11.11
2019-04-23T02:16:55.922Z,11.12
2019-04-23T02:19:07.705Z,11.14
2019-04-23T02:21:10.766Z,11.12
2019-04-23T02:22:27.390Z,11.12
2019-04-23T02:23:26.292Z,11.09
2019-04-23T02:24:30.622Z,11.09
2019-04-23T02:25:44.277Z,11.09
2019-04-23T02:26:33.911Z,11.08
2019-04-23T02:27:43.313Z,11.06
2019-04-23T02:28:49.653Z,11.05
2019-04-23T02:30:05.956Z,11.05
2019-04-23T02:31:18.562Z,11.05
2019-04-23T02:32:01.321Z,11.06
2019-04-23T02:35:46.357Z,11.06
2019-04-23T02:36:11.179Z,11.06
2019-04-23T02:39:47.782Z,11.09
2019-04-23T02:40:49.583Z,11.10
2019-04-23T02:41:47.030Z,11.09
2019-04-23T02:43:00.863Z,11.07
2019-04-23T02:43:51.021Z,11.06
2019-04-23T02:44:56.342Z,11.06
2019-04-23T02:46:01.938Z,11.04
2019-04-23T02:50:33.621Z,10.98
2019-04-23T02:51:31.128Z,10.98
2019-04-23T02:52:21.291Z,10.99
2019-04-23T02:53:37.613Z,11.00
2019-04-23T02:54:50.897Z,11.01
2019-04-23T02:57:44.175Z,11.01
2019-04-23T02:58:52.172Z,10.99
2019-04-23T03:00:16.147Z,10.97
2019-04-23T03:02:14.480Z,10.96
2019-04-23T03:03:06.112Z,10.95
2019-04-23T03:05:22.199Z,10.94
2019-04-23T03:06:21.807Z,10.93
2019-04-23T03:09:36.433Z,10.93
2019-04-23T03:10:42.795Z,10.93
2019-04-23T03:11:54.132Z,10.93
2019-04-23T03:15:04.526Z,10.90
2019-04-23T03:16:06.266Z,10.89
2019-04-23T03:17:11.088Z,10.86
2019-04-23T03:18:21.096Z,10.85
2019-04-23T03:19:13.635Z,10.82
2019-04-23T03:20:21.486Z,10.79
2019-04-23T03:21:29.082Z,10.78
2019-04-23T03:22:14.581Z,10.76
2019-04-23T03:23:34.110Z,10.74
2019-04-23T03:25:31.314Z,10.73
2019-04-23T03:27:42.102Z,10.70
2019-04-23T03:28:55.716Z,10.69
2019-04-23T03:32:30.220Z,10.67
2019-04-23T03:35:20.336Z,10.65
2019-04-23T03:37:11.186Z,10.64
2019-04-23T03:38:41.698Z,10.64
2019-04-23T03:39:50.020Z,10.62
2019-04-23T03:40:39.160Z,10.61
2019-04-23T03:43:47.007Z,10.59
2019-04-23T03:45:10.135Z,10.59
2019-04-23T03:47:06.626Z,10.56
2019-04-23T03:48:16.819Z,10.54
2019-04-23T03:49:16.292Z,10.54
2019-04-23T03:50:23.874Z,10.54
2019-04-23T03:52:27.879Z,10.54
2019-04-23T03:53:49.618Z,10.54
2019-04-23T03:54:39.948Z,10.53
2019-04-23T03:56:56.256Z,10.52
2019-04-23T03:58:47.359Z,10.50
2019-04-23T04:01:07.414Z,10.51
2019-04-23T04:02:20.557Z,10.48
2019-04-23T04:05:22.349Z,10.49
2019-04-23T04:07:44.902Z,10.47
2019-04-23T04:08:26.205Z,10.46
2019-04-23T04:10:44.466Z,10.47
2019-04-23T04:11:27.179Z,10.47
2019-04-23T04:12:47.457Z,10.48
2019-04-23T04:15:20.865Z,10.48
2019-04-23T04:17:12.444Z,10.50
2019-04-23T04:18:21.254Z,10.50
2019-04-23T04:20:24.512Z,10.50
2019-04-23T04:21:29.911Z,10.48
2019-04-23T04:22:49.756Z,10.49
2019-04-23T04:24:34.659Z,10.51
2019-04-23T04:25:45.009Z,10.53
2019-04-23T04:26:50.935Z,10.53
2019-04-23T04:30:52.099Z,10.53
2019-04-23T04:32:11.887Z,10.53
2019-04-23T04:33:16.674Z,10.53
2019-04-23T04:34:43.834Z,10.54
2019-04-23T04:36:26.520Z,10.56
2019-04-23T04:37:44.155Z,10.57
2019-04-23T04:39:42.240Z,10.59
2019-04-23T04:40:47.209Z,10.60
2019-04-23T04:41:52.451Z,10.61
2019-04-23T04:45:04.838Z,10.65
2019-04-23T04:46:12.418Z,10.67
2019-04-23T04:48:11.881Z,10.69
2019-04-23T04:49:21.440Z,10.72
2019-04-23T04:52:48.658Z,10.79
2019-04-23T04:54:39.323Z,10.83
2019-04-23T04:55:45.203Z,10.86
2019-04-23T04:56:43.057Z,10.89
2019-04-23T04:57:52.667Z,10.92
2019-04-23T04:58:52.908Z,10.93
2019-04-23T05:01:08.363Z,10.99
2019-04-23T05:02:20.848Z,11.01
2019-04-23T05:03:19.255Z,11.05
2019-04-23T05:04:19.956Z,11.05
2019-04-23T05:06:24.779Z,11.10
2019-04-23T05:10:04.304Z,11.19
2019-04-23T05:12:52.896Z,11.24
2019-04-23T05:13:52.448Z,11.27
2019-04-23T05:16:07.936Z,11.31
2019-04-23T05:17:02.931Z,11.33
2019-04-23T05:18:17.764Z,11.38
2019-04-23T05:19:25.057Z,11.43
2019-04-23T05:20:23.978Z,11.44
2019-04-23T05:21:20.782Z,11.48
2019-04-23T05:22:32.569Z,11.52
2019-04-23T05:23:25.573Z,11.55
2019-04-23T05:25:31.671Z,11.60
2019-04-23T05:26:33.125Z,11.63
2019-04-23T05:27:54.461Z,11.63
2019-04-23T05:29:06.394Z,11.67
2019-04-23T05:30:02.861Z,11.71
2019-04-23T05:31:01.603Z,11.75
2019-04-23T05:31:58.045Z,11.76
2019-04-23T05:33:15.353Z,11.78
2019-04-23T05:34:10.686Z,11.82
2019-04-23T05:35:27.840Z,11.88
2019-04-23T05:37:50.411Z,12.10
2019-04-23T05:38:43.737Z,12.34
2019-04-23T05:39:35.781Z,12.53
2019-04-23T05:40:53.718Z,12.80
2019-04-23T05:41:41.662Z,12.97
2019-04-23T05:42:49.736Z,13.19
2019-04-23T05:44:55.752Z,13.29
2019-04-23T05:45:57.381Z,13.45
2019-04-23T05:47:11.764Z,13.58
2019-04-23T05:48:13.382Z,13.66
2019-04-23T05:49:11.017Z,13.75
2019-04-23T05:50:30.217Z,13.98
2019-04-23T05:51:36.392Z,13.83
2019-04-23T05:52:24.103Z,13.69
2019-04-23T05:53:37.806Z,13.98
2019-04-23T05:54:40.840Z,14.22
2019-04-23T05:55:46.006Z,14.38
2019-04-23T05:56:46.796Z,14.43
2019-04-23T05:57:45.281Z,14.22
2019-04-23T05:58:52.948Z,14.18
2019-04-23T06:00:02.086Z,14.15
2019-04-23T06:01:19.988Z,14.17
2019-04-23T06:02:18.246Z,14.34
2019-04-23T06:04:21.636Z,14.11
2019-04-23T06:06:31.641Z,14.21
2019-04-23T06:07:35.514Z,14.09
2019-04-23T06:08:39.066Z,13.92
2019-04-23T06:09:52.123Z,13.79
2019-04-23T06:10:42.105Z,13.91
2019-04-23T06:11:52.670Z,14.11
2019-04-23T06:12:50.900Z,14.25
2019-04-23T06:14:00.221Z,14.20
2019-04-23T06:14:57.538Z,14.22
2019-04-23T06:16:08.512Z,14.18
2019-04-23T06:17:09.351Z,14.19
2019-04-23T06:18:17.154Z,14.39
2019-04-23T06:20:27.577Z,14.20
2019-04-23T06:21:25.215Z,14.11
2019-04-23T06:23:37.642Z,13.90
2019-04-23T06:24:49.209Z,13.95
2019-04-23T06:26:12.782Z,13.96
2019-04-23T06:27:06.821Z,13.91
2019-04-23T06:27:54.943Z,13.99
2019-04-23T06:29:00.854Z,14.11
2019-04-23T06:29:57.477Z,14.02
2019-04-23T06:32:06.387Z,13.86
2019-04-23T06:33:19.926Z,14.00
2019-04-23T06:35:27.075Z,14.20
2019-04-23T06:36:26.034Z,14.15
2019-04-23T06:37:36.799Z,14.22
2019-04-23T06:38:53.383Z,14.19
2019-04-23T06:40:45.329Z,14.22
2019-04-23T06:41:50.168Z,14.17
2019-04-23T06:42:54.803Z,14.18
2019-04-23T06:44:00.540Z,14.19
2019-04-23T06:46:04.874Z,14.11
2019-04-23T06:47:06.870Z,14.19
2019-04-23T06:48:15.523Z,14.12
2019-04-23T06:50:19.547Z,14.03
2019-04-23T06:51:27.226Z,14.15
2019-04-23T06:52:43.718Z,14.20
2019-04-23T06:53:33.775Z,14.28
2019-04-23T06:54:42.883Z,14.37
2019-04-23T06:55:42.553Z,14.39
2019-04-23T06:56:54.369Z,14.33
2019-04-23T06:57:48.184Z,14.45
2019-04-23T06:59:14.052Z,14.50
2019-04-23T07:00:04.271Z,14.42
2019-04-23T07:02:12.033Z,14.30
2019-04-23T07:03:14.992Z,14.32
2019-04-23T07:04:22.031Z,14.36
2019-04-23T07:05:25.250Z,14.43
2019-04-23T07:07:42.524Z,14.39
2019-04-23T07:08:53.931Z,14.41
2019-04-23T07:09:35.270Z,14.43
2019-04-23T07:10:55.514Z,14.34
2019-04-23T07:11:46.288Z,14.38
2019-04-23T07:15:14.120Z,14.43
2019-04-23T07:16:03.149Z,14.45
2019-04-23T07:17:21.349Z,14.45
2019-04-23T07:18:10.050Z,14.45
2019-04-23T07:19:25.024Z,14.43
2019-04-23T07:20:25.236Z,14.47
2019-04-23T07:21:42.012Z,14.46
2019-04-23T07:22:28.497Z,14.41
2019-04-23T07:23:46.317Z,14.33
2019-04-23T07:24:45.727Z,14.35
2019-04-23T07:25:53.977Z,14.46
2019-04-23T07:26:49.354Z,14.54
2019-04-23T07:27:59.019Z,14.55
2019-04-23T07:30:08.317Z,14.66
2019-04-23T07:31:19.227Z,14.71
2019-04-23T07:32:11.631Z,14.72
2019-04-23T07:33:20.867Z,14.64
2019-04-23T07:34:19.223Z,14.60
2019-04-23T07:35:21.287Z,14.54
2019-04-23T07:36:38.844Z,14.59
2019-04-23T07:37:40.685Z,14.69
2019-04-23T07:38:47.490Z,14.67
2019-04-23T07:39:55.921Z,14.57
2019-04-23T07:40:46.745Z,14.61
2019-04-23T07:41:54.806Z,14.56
2019-04-23T07:43:00.106Z,14.61
2019-04-23T07:44:06.351Z,14.69
2019-04-23T07:45:01.920Z,14.72
2019-04-23T07:47:23.387Z,14.85
2019-04-23T07:48:15.249Z,14.88
2019-04-23T07:49:23.701Z,14.88
2019-04-23T07:51:31.781Z,14.84
2019-04-23T07:53:41.245Z,14.80
2019-04-23T07:54:51.286Z,14.73
2019-04-23T07:56:02.516Z,14.73
2019-04-23T07:56:54.142Z,14.73
2019-04-23T07:58:01.955Z,14.79
2019-04-23T07:59:07.319Z,14.91
2019-04-23T08:01:06.318Z,15.12
2019-04-23T08:02:22.027Z,15.21
2019-04-23T08:03:22.302Z,15.21
2019-04-23T08:04:29.583Z,15.22
2019-04-23T08:05:26.534Z,15.14
2019-04-23T08:06:30.031Z,15.09
2019-04-23T08:07:37.528Z,15.16
2019-04-23T08:08:36.399Z,15.22
2019-04-23T08:09:47.813Z,15.28
2019-04-23T08:11:11.145Z,15.31
2019-04-23T08:12:16.995Z,15.32
2019-04-23T08:13:00.946Z,15.26
2019-04-23T08:15:13.065Z,15.18
2019-04-23T08:16:21.817Z,15.23
2019-04-23T08:17:20.391Z,15.22
2019-04-23T08:18:18.030Z,15.27
2019-04-23T08:19:26.709Z,15.23
2019-04-23T08:20:32.223Z,15.33
2019-04-23T08:21:45.970Z,15.35
2019-04-23T08:22:40.752Z,15.41
2019-04-23T08:23:42.785Z,15.45
2019-04-23T08:24:53.648Z,15.44
2019-04-23T08:26:00.565Z,15.40
2019-04-23T08:26:53.516Z,15.43
2019-04-23T08:27:55.525Z,15.46
2019-04-23T08:29:04.097Z,15.46
2019-04-23T08:30:00.658Z,15.53
2019-04-23T08:31:16.537Z,15.61
2019-04-23T08:32:14.995Z,15.57
2019-04-23T08:33:17.316Z,15.53
2019-04-23T08:34:32.510Z,15.56
2019-04-23T08:35:27.002Z,15.61
2019-04-23T08:36:37.527Z,15.68
2019-04-23T08:37:49.729Z,15.83
2019-04-23T08:39:43.419Z,15.88
2019-04-23T08:40:57.502Z,15.91
2019-04-23T08:42:09.593Z,15.91
2019-04-23T08:43:25.103Z,15.83
2019-04-23T08:44:10.131Z,15.82
2019-04-23T08:46:14.045Z,15.97
2019-04-23T08:47:20.261Z,16.01
2019-04-23T08:48:34.609Z,16.11
2019-04-23T08:49:29.048Z,16.21
2019-04-23T08:50:35.871Z,16.24
2019-04-23T08:51:53.325Z,16.23
2019-04-23T08:52:40.191Z,16.23
2019-04-23T08:53:42.419Z,16.18
2019-04-23T08:54:58.062Z,16.05
2019-04-23T08:56:07.295Z,16.00
2019-04-23T08:58:04.631Z,15.96
2019-04-23T08:59:07.407Z,16.05
2019-04-23T09:00:03.584Z,16.04
2019-04-23T09:01:10.646Z,16.00
2019-04-23T09:02:30.590Z,16.09
2019-04-23T09:04:27.077Z,16.31
2019-04-23T09:05:38.236Z,16.32
2019-04-23T09:06:29.133Z,16.38
2019-04-23T09:07:42.589Z,16.46
2019-04-23T09:09:56.796Z,16.40
2019-04-23T09:10:56.248Z,16.44
2019-04-23T09:11:53.765Z,16.45
2019-04-23T09:13:31.492Z,16.44
2019-04-23T09:14:03.951Z,16.36
2019-04-23T09:15:15.378Z,16.26
2019-04-23T09:16:17.999Z,16.31
2019-04-23T09:17:27.789Z,16.36
2019-04-23T09:18:20.975Z,16.40
2019-04-23T09:19:32.134Z,16.40
2019-04-23T09:20:27.688Z,16.44
2019-04-23T09:21:33.227Z,16.46
2019-04-23T09:22:38.619Z,16.56
2019-04-23T09:23:46.731Z,16.62
2019-04-23T09:24:55.747Z,16.56
2019-04-23T09:27:03.950Z,16.50
2019-04-23T09:28:04.537Z,16.49
2019-04-23T09:29:10.426Z,16.47
2019-04-23T09:30:16.762Z,16.47
2019-04-23T09:31:18.864Z,16.48
2019-04-23T09:32:47.267Z,16.51
2019-04-23T09:33:37.750Z,16.56
2019-04-23T09:34:29.896Z,16.65
2019-04-23T09:35:31.145Z,16.72
2019-04-23T09:36:40.626Z,16.81
2019-04-23T09:38:55.917Z,16.80
2019-04-23T09:39:59.446Z,16.82
2019-04-23T09:42:03.881Z,16.66
2019-04-23T09:45:15.153Z,16.94
2019-04-23T09:46:17.892Z,16.98
2019-04-23T09:47:19.398Z,16.91
2019-04-23T09:48:26.701Z,16.89
2019-04-23T09:49:34.870Z,16.89
2019-04-23T09:50:37.681Z,16.98
2019-04-23T09:52:48.404Z,16.92
2019-04-23T09:54:00.666Z,16.81
2019-04-23T09:55:00.245Z,16.83
2019-04-23T09:55:46.797Z,16.89
2019-04-23T09:57:02.377Z,16.93
2019-04-23T09:59:15.907Z,17.03
2019-04-23T10:00:22.892Z,17.16
2019-04-23T10:01:19.614Z,17.16
2019-04-23T10:02:17.432Z,17.10
2019-04-23T10:03:16.112Z,17.05
2019-04-23T10:04:18.847Z,17.12
2019-04-23T10:05:22.172Z,17.10
2019-04-23T10:06:20.924Z,17.08
2019-04-23T10:07:31.431Z,17.09
2019-04-23T10:08:27.953Z,17.04
2019-04-23T10:09:27.377Z,17.13
2019-04-23T10:10:30.335Z,17.27
2019-04-23T10:11:34.638Z,17.24
2019-04-23T10:12:39.991Z,17.30
2019-04-23T10:13:43.482Z,17.35
2019-04-23T10:14:59.329Z,17.40
2019-04-23T10:15:53.587Z,17.48
2019-04-23T10:16:57.923Z,17.53
2019-04-23T10:18:02.406Z,17.54
2019-04-23T10:19:06.084Z,17.49
2019-04-23T10:20:10.821Z,17.53
2019-04-23T10:21:15.312Z,17.45
2019-04-23T10:22:19.508Z,17.37
2019-04-23T10:23:23.223Z,17.35
2019-04-23T10:24:27.631Z,17.41
2019-04-23T10:25:31.975Z,17.31
2019-04-23T10:26:35.588Z,17.25
2019-04-23T10:27:41.310Z,17.30
2019-04-23T10:28:44.317Z,17.26
2019-04-23T10:29:49.926Z,17.30
2019-04-23T10:30:54.450Z,17.35
2019-04-23T10:31:57.796Z,17.27
2019-04-23T10:33:03.263Z,17.29
2019-04-23T10:34:06.492Z,17.38
2019-04-23T10:35:22.420Z,17.41
2019-04-23T10:36:19.057Z,17.46
2019-04-23T10:37:32.028Z,17.56
2019-04-23T10:38:24.663Z,17.57
2019-04-23T10:39:33.597Z,17.62
2019-04-23T10:40:37.505Z,17.69
2019-04-23T10:41:38.482Z,17.70
2019-04-23T10:42:44.639Z,17.70
2019-04-23T10:43:48.394Z,17.71
2019-04-23T10:44:52.363Z,17.79
2019-04-23T10:46:15.026Z,17.91
2019-04-23T10:47:23.793Z,17.96
2019-04-23T10:48:34.343Z,17.97
2019-04-23T10:49:53.558Z,17.93
2019-04-23T10:50:50.829Z,17.88
2019-04-23T10:51:42.441Z,17.83
2019-04-23T10:52:52.342Z,17.84
2019-04-23T10:53:50.613Z,17.93
2019-04-23T10:55:11.800Z,18.00
2019-04-23T10:56:18.515Z,18.00
2019-04-23T10:57:09.238Z,18.09
2019-04-23T10:58:16.369Z,18.19
2019-04-23T10:59:19.784Z,18.29
2019-04-23T11:00:17.381Z,18.35
2019-04-23T11:01:28.004Z,18.38
2019-04-23T11:03:49.200Z,18.22
2019-04-23T11:04:48.866Z,18.24
2019-04-23T11:05:56.318Z,18.31
2019-04-23T11:06:47.347Z,18.44
2019-04-23T11:07:48.806Z,18.43
2019-04-23T11:08:51.759Z,18.39
2019-04-23T11:11:07.919Z,18.45
2019-04-23T11:12:12.439Z,18.45
2019-04-23T11:13:17.499Z,18.42
2019-04-23T11:14:18.253Z,18.35
2019-04-23T11:17:38.355Z,18.59
2019-04-23T11:18:48.970Z,18.55
2019-04-23T11:19:50.846Z,18.51
2019-04-23T11:20:46.221Z,18.53
2019-04-23T11:21:51.200Z,18.51
2019-04-23T11:24:01.665Z,18.74
2019-04-23T11:26:06.747Z,18.73
2019-04-23T11:27:19.118Z,18.65
2019-04-23T11:29:17.708Z,18.64
2019-04-23T11:30:33.120Z,18.61
2019-04-23T11:31:48.727Z,18.60
2019-04-23T11:33:39.148Z,18.80
2019-04-23T11:35:03.250Z,18.89
2019-04-23T11:36:09.418Z,18.97
2019-04-23T11:36:53.722Z,19.02
2019-04-23T11:39:00.236Z,19.05
2019-04-23T11:41:16.019Z,19.29
2019-04-23T11:42:14.512Z,19.33
2019-04-23T11:44:26.407Z,19.38
2019-04-23T11:46:45.693Z,19.59
2019-04-23T11:48:07.427Z,19.64
2019-04-23T11:49:53.368Z,19.68
2019-04-23T11:51:21.788Z,19.66
2019-04-23T11:52:08.491Z,19.62
2019-04-23T11:55:20.440Z,19.57
2019-04-23T11:56:16.090Z,19.60
2019-04-23T11:59:31.721Z,19.49
2019-04-23T12:00:33.607Z,19.59
2019-04-23T12:02:38.656Z,19.67
2019-04-23T12:03:46.813Z,19.75
2019-04-23T12:04:49.900Z,19.83
2019-04-23T12:05:49.947Z,19.92
2019-04-23T12:06:52.829Z,19.99
2019-04-23T12:07:57.441Z,20.08
2019-04-23T12:08:58.989Z,20.14
2019-04-23T12:11:39.442Z,20.08
2019-04-23T12:12:16.891Z,20.05
2019-04-23T12:13:28.654Z,20.11
2019-04-23T12:14:30.530Z,20.11
2019-04-23T12:15:37.497Z,20.15
2019-04-23T12:16:41.128Z,20.09
2019-04-23T12:17:43.246Z,19.99
2019-04-23T12:18:58.139Z,20.05
2019-04-23T12:20:49.030Z,20.19
2019-04-23T12:23:07.480Z,20.22
2019-04-23T12:24:11.809Z,20.35
2019-04-23T12:27:25.533Z,20.60
2019-04-23T12:28:20.773Z,20.76
2019-04-23T12:29:27.435Z,20.84
2019-04-23T12:31:40.106Z,21.09
2019-04-23T12:33:45.392Z,21.07
2019-04-23T12:34:55.701Z,21.10
2019-04-23T12:35:43.384Z,21.13
2019-04-23T12:36:57.165Z,20.93
2019-04-23T12:39:04.390Z,20.61
2019-04-23T12:40:18.247Z,20.52
2019-04-23T12:41:12.989Z,20.54
2019-04-23T12:42:28.285Z,20.53
2019-04-23T12:43:18.992Z,20.61
2019-04-23T12:44:31.003Z,20.73
2019-04-23T12:45:31.740Z,20.87
2019-04-23T12:46:41.701Z,20.89
2019-04-23T12:47:58.283Z,20.97
2019-04-23T12:48:46.749Z,21.01
2019-04-23T12:50:05.074Z,21.12
2019-04-23T12:50:58.639Z,20.96
2019-04-23T12:51:55.528Z,20.81
2019-04-23T12:53:00.635Z,20.61
2019-04-23T12:54:09.223Z,20.58
2019-04-23T12:55:13.625Z,20.55
2019-04-23T12:56:21.326Z,20.45
2019-04-23T12:57:17.988Z,20.43
2019-04-23T12:58:26.868Z,20.39
2019-04-23T12:59:27.282Z,20.33
2019-04-23T13:00:33.956Z,20.34
2019-04-23T13:01:45.469Z,20.29
2019-04-23T13:03:39.253Z,20.21
2019-04-23T13:05:43.519Z,20.29
2019-04-23T13:06:57.844Z,20.44
2019-04-23T13:08:05.704Z,20.50
2019-04-23T13:09:18.592Z,20.51
2019-04-23T13:10:11.904Z,20.56
2019-04-23T13:11:17.620Z,20.59
2019-04-23T13:12:33.277Z,20.69
2019-04-23T13:14:34.731Z,20.70
2019-04-23T13:15:48.963Z,20.75
2019-04-23T13:18:47.050Z,20.59
2019-04-23T13:19:54.692Z,20.60
2019-04-23T13:20:47.859Z,20.49
2019-04-23T13:22:13.505Z,20.42
2019-04-23T13:24:11.465Z,20.36
2019-04-23T13:25:19.967Z,20.39
2019-04-23T13:26:07.666Z,20.39
2019-04-23T13:27:30.595Z,20.29
2019-04-23T13:28:29.579Z,20.26
2019-04-23T13:29:41.507Z,20.21
2019-04-23T13:30:37.508Z,20.20
2019-04-23T13:31:34.697Z,20.13
2019-04-23T13:32:46.514Z,20.12
2019-04-23T13:33:58.656Z,20.01
2019-04-23T13:35:02.641Z,20.02
2019-04-23T13:36:01.667Z,19.99
2019-04-23T13:37:00.490Z,19.96
2019-04-23T13:38:09.858Z,19.86
2019-04-23T13:39:14.576Z,19.82
2019-04-23T13:40:21.354Z,19.76
2019-04-23T13:42:33.689Z,19.75
2019-04-23T13:43:36.349Z,19.80
2019-04-23T13:44:38.926Z,19.87
2019-04-23T13:46:35.562Z,19.81
2019-04-23T13:47:53.433Z,19.77
2019-04-23T13:48:49.305Z,19.79
2019-04-23T13:50:00.237Z,19.81
2019-04-23T13:52:28.315Z,19.81
2019-04-23T13:53:18.554Z,19.84
2019-04-23T13:54:17.313Z,19.89
2019-04-23T13:55:26.737Z,19.94
2019-04-23T13:56:23.795Z,19.98
2019-04-23T13:58:26.767Z,20.02
2019-04-23T13:59:48.566Z,19.99
2019-04-23T14:01:41.192Z,19.98
2019-04-23T14:04:16.604Z,19.97
2019-04-23T14:06:09.372Z,19.92
2019-04-23T14:07:10.603Z,19.88
2019-04-23T14:08:23.224Z,19.81
2019-04-23T14:09:20.054Z,19.70
2019-04-23T14:11:27.155Z,19.70
2019-04-23T14:12:31.841Z,19.70
2019-04-23T14:14:47.977Z,19.71
2019-04-23T14:15:54.015Z,19.73
2019-04-23T14:18:17.429Z,19.65
2019-04-23T14:18:59.061Z,19.61
2019-04-23T14:20:04.165Z,19.65
2019-04-23T14:21:08.450Z,19.66
2019-04-23T14:22:21.203Z,19.70
2019-04-23T14:23:17.877Z,19.70
2019-04-23T14:24:38.832Z,19.71
2019-04-23T14:25:17.112Z,19.73
2019-04-23T14:26:32.685Z,19.70
2019-04-23T14:27:44.612Z,19.66
2019-04-23T14:28:35.491Z,19.54
2019-04-23T14:29:48.772Z,19.43
2019-04-23T14:30:51.036Z,19.38
2019-04-23T14:31:43.226Z,19.39
2019-04-23T14:32:54.231Z,19.39
2019-04-23T14:35:10.846Z,19.42
2019-04-23T14:37:11.877Z,19.37
2019-04-23T14:39:20.040Z,19.28
2019-04-23T14:40:29.799Z,19.26
2019-04-23T14:41:27.242Z,19.23
2019-04-23T14:43:40.648Z,19.30
2019-04-23T14:44:40.503Z,19.35
2019-04-23T14:46:58.669Z,19.41
2019-04-23T14:47:59.143Z,19.33
2019-04-23T14:48:56.978Z,19.31
2019-04-23T14:50:24.375Z,19.31
2019-04-23T14:51:16.629Z,19.29
2019-04-23T14:52:14.214Z,19.30
2019-04-23T14:54:24.884Z,19.24
2019-04-23T14:56:27.800Z,19.27
2019-04-23T14:59:37.637Z,19.23
2019-04-23T15:00:54.057Z,19.19
2019-04-23T15:01:49.250Z,19.14
2019-04-23T15:03:00.215Z,19.10
2019-04-23T15:03:56.028Z,19.06
2019-04-23T15:05:04.109Z,19.02
2019-04-23T15:06:26.097Z,19.00
2019-04-23T15:07:18.851Z,18.98
2019-04-23T15:08:24.970Z,18.97
2019-04-23T15:10:24.559Z,18.94
2019-04-23T15:13:42.792Z,19.06
2019-04-23T15:14:51.200Z,19.15
2019-04-23T15:15:57.085Z,19.19
2019-04-23T15:16:57.125Z,19.16
2019-04-23T15:17:58.051Z,19.09
2019-04-23T15:20:04.319Z,18.99
2019-04-23T15:21:31.473Z,18.95
2019-04-23T15:22:15.764Z,18.91
2019-04-23T15:23:33.446Z,18.86
2019-04-23T15:24:30.588Z,18.82
2019-04-23T15:28:18.573Z,18.83
2019-04-23T15:29:36.829Z,18.85
2019-04-23T15:30:58.703Z,18.89
2019-04-23T15:33:11.807Z,18.99
2019-04-23T15:35:25.338Z,19.07
2019-04-23T15:37:32.883Z,19.03
2019-04-23T15:38:37.699Z,19.05
2019-04-23T15:40:36.623Z,19.05
2019-04-23T15:41:43.768Z,19.03
2019-04-23T15:42:40.407Z,19.02
2019-04-23T15:43:49.509Z,18.99
2019-04-23T15:44:48.991Z,18.96
2019-04-23T15:45:52.343Z,18.88
2019-04-23T15:47:01.989Z,18.77
2019-04-23T15:48:03.332Z,18.69
2019-04-23T15:49:22.946Z,18.66
2019-04-23T15:50:19.808Z,18.61
2019-04-23T15:51:20.661Z,18.59
2019-04-23T15:52:19.232Z,18.59
2019-04-23T15:53:17.527Z,18.59
2019-04-23T15:54:37.628Z,18.57
2019-04-23T15:55:36.727Z,18.53
2019-04-23T15:56:40.943Z,18.52
2019-04-23T15:58:53.629Z,18.50
2019-04-23T15:59:48.197Z,18.48
2019-04-23T16:01:00.793Z,18.47
2019-04-23T16:01:41.079Z,18.44
2019-04-23T16:02:35.100Z,18.44
2019-04-23T16:03:41.856Z,18.44
2019-04-23T16:04:44.088Z,18.45
2019-04-23T16:05:48.875Z,18.46
2019-04-23T16:06:54.044Z,18.47
2019-04-23T16:08:27.934Z,18.45
2019-04-23T16:09:26.154Z,18.46
2019-04-23T16:11:47.991Z,18.40
2019-04-23T16:12:41.634Z,18.38
2019-04-23T16:14:05.886Z,18.37
2019-04-23T16:14:56.802Z,18.34
2019-04-23T16:15:57.993Z,18.34
2019-04-23T16:17:04.470Z,18.35
2019-04-23T16:18:14.018Z,18.37
2019-04-23T16:19:17.731Z,18.39
2019-04-23T16:20:32.009Z,18.40
2019-04-23T16:21:32.250Z,18.39
2019-04-23T16:22:19.753Z,18.38
2019-04-23T16:23:26.382Z,18.38
2019-04-23T16:24:51.895Z,18.38
2019-04-23T16:25:31.683Z,18.34
2019-04-23T16:26:52.386Z,18.31
2019-04-23T16:27:42.045Z,18.28
2019-04-23T16:29:07.466Z,18.25
2019-04-23T16:30:08.529Z,18.21
2019-04-23T16:31:03.269Z,18.19
2019-04-23T16:32:08.285Z,18.16
2019-04-23T16:33:08.367Z,18.14
2019-04-23T16:35:19.422Z,18.08
2019-04-23T16:36:19.203Z,18.08
2019-04-23T16:37:20.151Z,18.04
2019-04-23T16:38:33.639Z,18.02
2019-04-23T16:39:28.820Z,18.00
2019-04-23T16:40:36.993Z,18.00
2019-04-23T16:41:39.902Z,17.99
2019-04-23T16:42:49.377Z,17.99
2019-04-23T16:43:59.686Z,18.00
2019-04-23T16:46:03.737Z,17.99
2019-04-23T16:47:23.924Z,17.98
2019-04-23T16:48:13.987Z,17.98
2019-04-23T16:49:23.275Z,17.97
2019-04-23T16:50:18.275Z,17.96
2019-04-23T16:51:24.750Z,17.94
2019-04-23T16:52:27.851Z,17.92
2019-04-23T16:53:27.032Z,17.92
2019-04-23T16:55:37.909Z,17.91
2019-04-23T16:57:01.020Z,17.90
2019-04-23T16:58:54.604Z,17.82
2019-04-23T17:01:05.468Z,17.76
2019-04-23T17:02:13.476Z,17.74
2019-04-23T17:03:26.504Z,17.71
2019-04-23T17:04:18.068Z,17.68